Pocono Lake, Pennsylvania
Current Conditions -  °F | °C
As of 8:53 PM on Wednesday 22 Oct 2014 (Local Time) from KMPO Reporting Station
Light Rain Light Rain  
Wind Chill:   Ceiling: 800
Heat Index:   Visibility: 5mi
Dew Point:   Wind: 12mph
Humidity: 86%   Direction: 350°N
Pressure: 29.88"   Gusts: 23mph
Location:  41.09°N, 75.58°W
Report Text: KMPO 230053Z AUTO 35010G20KT 5SM -RA BR BKN008 OVC013 09/07 A2988 RMK AO2 PK WND 02026/0003 CIG 006V010 SLP124 T00890067 TSNO PNO $
Loading
Personal Weather Stations






























Interactive Weather Map
Tropical Storm Tracking
New forecast layout! Learn more

10-Day Weather Forecast

Advertisements
Track Severe Weather on mobile